Comer, Illinois
Current Conditions -  °F | °C
As of 2:35 PM on Tuesday 21 Oct 2014 (Local Time) from K3LF Reporting Station
Clear Clear  
Wind Chill: 61°   Ceiling: Unl
Heat Index: 61°   Visibility: 10mi
Dew Point: 42°   Wind: 12mph
Humidity: 50%   Direction: 360°N
Pressure: 30.12"   Gusts: NA
Location:  39.2714°N, 89.9463°W
Report Text: K3LF 211935Z AUTO 36010KT 350V050 10SM CLR 16/06 A3012 RMK AO2 T01620057
Loading
Personal Weather Stations






























Interactive Weather Map
Tropical Storm Tracking
New forecast layout! Learn more

10-Day Weather Forecast

Advertisements
Track Severe Weather on mobile